Time;durP1;ratioP1;P1;durP2;ratioP2;P2;SDS_P1;SDS_P2;PMS_P1;PMS_P2;Temp;Humidity;BMP_temperature;BMP_pressure;BME280_temperature;BME280_humidity;BME280_pressure;Samples;Min_cycle;Max_cycle;Signal;HPM_P1;HPM_P2
2021/05/20 00:00:18;;;;;;;4.00;1.07;;;12.80;99.90;;;;;;5074002;28;20232;-62
2021/05/20 00:02:45;;;;;;;1.83;1.00;;;12.80;99.90;;;;;;5074015;28;20209;-62
2021/05/20 00:05:12;;;;;;;1.27;1.13;;;12.70;99.90;;;;;;5073787;28;20707;-65
2021/05/20 00:07:40;;;;;;;2.00;1.13;;;12.60;99.90;;;;;;5073720;28;20225;-62
2021/05/20 00:10:07;;;;;;;1.87;1.10;;;12.50;99.90;;;;;;5073715;28;20668;-63
2021/05/20 00:12:34;;;;;;;1.23;1.10;;;12.40;99.90;;;;;;5073635;28;20712;-64
2021/05/20 00:15:02;;;;;;;1.57;1.10;;;12.30;99.90;;;;;;5074078;28;20262;-66
2021/05/20 00:17:28;;;;;;;3.67;1.23;;;12.20;99.90;;;;;;5073807;28;20228;-65
2021/05/20 00:19:54;;;;;;;1.27;1.17;;;12.20;99.90;;;;;;5073684;28;20262;-67
2021/05/20 00:22:20;;;;;;;1.60;1.27;;;12.20;99.90;;;;;;5073878;28;20197;-66
2021/05/20 00:24:47;;;;;;;1.23;0.90;;;12.10;99.90;;;;;;5073616;28;20208;-68
2021/05/20 00:27:13;;;;;;;5.27;1.83;;;12.00;99.90;;;;;;5073347;28;20209;-65
2021/05/20 00:29:39;;;;;;;2.53;1.60;;;12.00;99.90;;;;;;5072437;28;20212;-66
2021/05/20 00:32:06;;;;;;;2.47;1.70;;;12.00;99.90;;;;;;5073343;28;20726;-65
2021/05/20 00:34:33;;;;;;;2.37;1.80;;;12.00;99.90;;;;;;5073181;28;20208;-64
2021/05/20 00:36:59;;;;;;;3.30;2.17;;;11.90;99.90;;;;;;5073178;28;20224;-68
2021/05/20 00:39:25;;;;;;;2.77;1.70;;;11.90;99.90;;;;;;5072952;28;20688;-65
2021/05/20 00:41:51;;;;;;;2.07;1.27;;;12.00;99.90;;;;;;5073260;28;20225;-65
2021/05/20 00:44:17;;;;;;;1.23;1.00;;;12.00;99.90;;;;;;5073195;28;20248;-67
2021/05/20 00:46:44;;;;;;;2.33;0.97;;;12.10;99.90;;;;;;5072999;28;20201;-67
2021/05/20 00:49:11;;;;;;;4.20;1.50;;;12.20;99.90;;;;;;5073205;28;20231;-65
2021/05/20 00:51:40;;;;;;;4.23;1.17;;;12.20;99.90;;;;;;5072971;28;20204;-65
2021/05/20 00:54:07;;;;;;;2.53;1.30;;;12.30;99.90;;;;;;5072604;28;20209;-65
2021/05/20 00:56:37;;;;;;;1.20;0.90;;;12.30;99.90;;;;;;5072810;28;20212;-66
2021/05/20 00:59:04;;;;;;;2.07;1.10;;;12.40;99.90;;;;;;5072787;28;20225;-66
2021/05/20 01:01:31;;;;;;;1.10;0.90;;;12.50;99.90;;;;;;5072880;28;20224;-65
2021/05/20 01:03:57;;;;;;;2.20;0.93;;;12.50;99.90;;;;;;5072735;28;20220;-65
2021/05/20 01:06:24;;;;;;;0.83;0.73;;;12.60;99.90;;;;;;5072643;28;20205;-66
2021/05/20 01:08:50;;;;;;;1.27;0.80;;;12.60;99.90;;;;;;5072375;28;20236;-65
2021/05/20 01:11:18;;;;;;;1.67;0.80;;;12.70;99.90;;;;;;5072578;28;20669;-65
2021/05/20 01:13:45;;;;;;;2.77;0.70;;;12.70;99.90;;;;;;5072577;28;20201;-66
2021/05/20 01:16:11;;;;;;;2.03;1.03;;;12.80;99.90;;;;;;5072605;28;20292;-65
2021/05/20 01:18:38;;;;;;;1.07;0.77;;;12.80;99.90;;;;;;5072456;28;20229;-65
2021/05/20 01:21:05;;;;;;;1.70;1.00;;;12.80;99.90;;;;;;5072375;28;20217;-66
2021/05/20 01:23:31;;;;;;;3.00;1.13;;;12.90;99.90;;;;;;5072512;28;20217;-64
2021/05/20 01:26:02;;;;;;;1.27;0.70;;;12.90;99.90;;;;;;5072511;28;20679;-65
2021/05/20 01:28:30;;;;;;;1.77;0.80;;;12.80;99.90;;;;;;5072565;28;20255;-65
2021/05/20 01:30:57;;;;;;;1.97;1.00;;;12.80;99.90;;;;;;5072376;28;20660;-65
2021/05/20 01:33:23;;;;;;;1.90;0.90;;;12.80;99.90;;;;;;5072435;28;20205;-66
2021/05/20 01:35:49;;;;;;;2.03;1.20;;;12.80;99.90;;;;;;5072293;28;20204;-65
2021/05/20 01:41:03;;;;;;;1.13;0.70;;;12.80;99.90;;;;;;5071725;28;20244;-65
2021/05/20 01:43:31;;;;;;;2.20;0.73;;;12.80;99.90;;;;;;5072102;28;20213;-64
2021/05/20 01:45:58;;;;;;;1.43;1.17;;;12.80;99.90;;;;;;5072610;28;20216;-66
2021/05/20 01:48:25;;;;;;;2.70;1.17;;;12.80;99.90;;;;;;5072242;28;20231;-66
2021/05/20 01:50:51;;;;;;;1.97;1.00;;;12.80;99.90;;;;;;5072076;28;20207;-65
2021/05/20 01:53:19;;;;;;;1.53;0.73;;;12.80;99.90;;;;;;5071780;28;20209;-65
2021/05/20 01:55:48;;;;;;;1.70;0.87;;;12.90;99.90;;;;;;5071820;28;20249;-67
2021/05/20 01:58:14;;;;;;;1.33;0.77;;;12.90;99.90;;;;;;5071401;28;20221;-66
2021/05/20 02:00:41;;;;;;;2.07;0.90;;;12.90;99.90;;;;;;5071424;28;20692;-65
2021/05/20 02:03:07;;;;;;;2.37;0.97;;;12.90;99.90;;;;;;5071659;28;20208;-66
2021/05/20 02:05:33;;;;;;;2.73;0.80;;;12.90;99.90;;;;;;5071668;28;20224;-64
2021/05/20 02:07:59;;;;;;;0.97;0.87;;;12.90;99.90;;;;;;5071500;28;20240;-65
2021/05/20 02:10:27;;;;;;;0.87;0.73;;;12.90;99.90;;;;;;5071440;28;20213;-67
2021/05/20 02:12:53;;;;;;;2.33;0.73;;;12.90;99.90;;;;;;5071497;28;20212;-65
2021/05/20 02:15:19;;;;;;;1.00;0.70;;;12.90;99.90;;;;;;5071377;28;20213;-65
2021/05/20 02:17:45;;;;;;;1.60;0.77;;;12.90;99.80;;;;;;5071240;28;20224;-66
2021/05/20 02:20:13;;;;;;;3.50;0.70;;;12.90;99.80;;;;;;5071639;28;20205;-65
2021/05/20 02:22:39;;;;;;;1.53;0.80;;;12.90;99.80;;;;;;5071395;28;20201;-66
2021/05/20 02:25:06;;;;;;;2.43;0.70;;;12.90;99.80;;;;;;5071121;28;20236;-65
2021/05/20 02:27:34;;;;;;;1.73;0.97;;;12.90;99.80;;;;;;5071065;28;20228;-67
2021/05/20 02:30:00;;;;;;;0.77;0.70;;;13.00;99.60;;;;;;5070932;28;20212;-65
2021/05/20 02:32:26;;;;;;;2.17;0.87;;;13.00;99.40;;;;;;5071313;28;20282;-65
2021/05/20 02:34:52;;;;;;;1.73;0.73;;;13.00;99.40;;;;;;5071148;28;20223;-65
2021/05/20 02:37:18;;;;;;;0.60;0.50;;;12.90;99.40;;;;;;5070996;28;20209;-65
2021/05/20 02:39:45;;;;;;;1.63;0.83;;;13.00;99.30;;;;;;5071439;28;20212;-65
2021/05/20 02:42:11;;;;;;;2.50;0.90;;;12.90;99.40;;;;;;5071066;28;20312;-65
2021/05/20 02:44:38;;;;;;;1.30;0.90;;;12.90;99.40;;;;;;5070781;28;20212;-67
2021/05/20 02:47:04;;;;;;;1.27;0.87;;;12.90;99.20;;;;;;5070847;28;20699;-65
2021/05/20 02:49:31;;;;;;;2.13;1.00;;;12.90;99.10;;;;;;5070970;28;20338;-65
2021/05/20 02:51:57;;;;;;;1.27;0.80;;;13.00;99.20;;;;;;5070598;28;20201;-65
2021/05/20 02:54:24;;;;;;;4.10;0.90;;;13.00;99.10;;;;;;5070994;28;20204;-64
2021/05/20 02:56:50;;;;;;;1.67;1.00;;;12.90;99.40;;;;;;5070797;28;20246;-66
2021/05/20 02:59:17;;;;;;;2.17;1.03;;;13.00;99.40;;;;;;5070635;28;20225;-66
2021/05/20 03:01:45;;;;;;;1.53;1.00;;;13.00;99.50;;;;;;5070958;28;20232;-65
2021/05/20 03:04:12;;;;;;;5.53;3.30;;;13.00;99.80;;;;;;5070721;28;20205;-65
2021/05/20 03:06:39;;;;;;;2.37;1.40;;;13.00;99.90;;;;;;5070767;28;20217;-64
2021/05/20 03:09:08;;;;;;;10.80;6.07;;;13.00;99.90;;;;;;5070344;28;20707;-64
2021/05/20 03:11:34;;;;;;;1.70;1.23;;;13.00;99.90;;;;;;5070622;28;20204;-64
2021/05/20 03:14:00;;;;;;;1.43;1.20;;;12.90;99.90;;;;;;5070735;28;20212;-65
2021/05/20 03:16:26;;;;;;;2.57;0.90;;;12.90;99.90;;;;;;5070605;28;20211;-64
2021/05/20 03:18:54;;;;;;;1.33;0.83;;;12.90;99.90;;;;;;5070788;28;20543;-64
2021/05/20 03:21:20;;;;;;;2.50;1.13;;;12.90;99.90;;;;;;5070469;28;20225;-66
2021/05/20 03:23:46;;;;;;;2.67;1.43;;;12.80;99.90;;;;;;5070440;28;20581;-65
2021/05/20 03:26:13;;;;;;;5.90;2.67;;;12.90;99.90;;;;;;5070533;28;20208;-65
2021/05/20 03:28:39;;;;;;;1.60;1.03;;;12.80;99.90;;;;;;5070327;28;20646;-65
2021/05/20 03:31:05;;;;;;;2.33;1.40;;;12.80;99.90;;;;;;5070496;28;20208;-64
2021/05/20 03:33:32;;;;;;;1.93;1.37;;;12.90;99.90;;;;;;5070771;28;20201;-67
2021/05/20 03:36:00;;;;;;;26.93;18.13;;;12.90;99.90;;;;;;5070635;28;20212;-65
2021/05/20 03:38:26;;;;;;;4.67;3.17;;;12.90;99.90;;;;;;5103378;22;20639;-62
2021/05/20 03:40:52;;;;;;;4.63;1.70;;;12.80;99.90;;;;;;5091251;28;20703;-61
2021/05/20 03:43:18;;;;;;;1.60;1.10;;;12.90;99.90;;;;;;5091162;28;20212;-61
2021/05/20 03:45:44;;;;;;;1.30;1.10;;;12.90;99.90;;;;;;5091104;28;20258;-62
2021/05/20 03:48:11;;;;;;;3.53;0.87;;;12.80;99.90;;;;;;5091344;28;20221;-62
2021/05/20 03:50:37;;;;;;;1.60;0.90;;;12.80;99.90;;;;;;5091627;28;20212;-62
2021/05/20 03:53:04;;;;;;;2.47;1.30;;;12.80;99.90;;;;;;5091071;28;20204;-61
2021/05/20 03:55:30;;;;;;;1.87;1.57;;;12.80;99.90;;;;;;5091106;28;20216;-62
2021/05/20 03:57:56;;;;;;;3.90;1.90;;;12.90;99.90;;;;;;5091383;28;20393;-62
2021/05/20 04:00:23;;;;;;;2.87;1.23;;;12.90;99.90;;;;;;5091860;28;20212;-62
2021/05/20 04:02:49;;;;;;;1.83;1.20;;;12.90;99.90;;;;;;5092168;28;20584;-62
2021/05/20 04:05:16;;;;;;;3.30;1.27;;;12.90;99.90;;;;;;5094759;28;20234;-62
2021/05/20 04:07:42;;;;;;;3.60;2.40;;;12.90;99.90;;;;;;5094553;28;20236;-62
2021/05/20 04:10:10;;;;;;;2.87;1.20;;;12.90;99.90;;;;;;5094563;28;20208;-62
2021/05/20 04:12:37;;;;;;;3.60;1.50;;;13.00;99.90;;;;;;5094472;28;20200;-62
2021/05/20 04:15:04;;;;;;;5.90;1.20;;;13.00;99.90;;;;;;5094174;28;20691;-62
2021/05/20 04:17:30;;;;;;;2.57;1.40;;;13.00;99.90;;;;;;5094576;28;20561;-61
2021/05/20 04:19:56;;;;;;;5.37;3.60;;;13.10;99.90;;;;;;5094263;28;20204;-62
2021/05/20 04:22:22;;;;;;;2.03;1.20;;;13.20;99.90;;;;;;5094171;28;20243;-62
2021/05/20 04:24:48;;;;;;;4.20;1.93;;;13.20;99.90;;;;;;5094121;28;20209;-62
2021/05/20 04:27:15;;;;;;;3.70;2.50;;;13.20;99.90;;;;;;5094153;28;20286;-62
2021/05/20 04:29:42;;;;;;;4.43;2.07;;;13.20;99.90;;;;;;5093983;28;20261;-62
2021/05/20 04:32:08;;;;;;;4.37;1.37;;;13.30;99.90;;;;;;5094243;28;20229;-62
2021/05/20 04:34:34;;;;;;;4.03;1.40;;;13.30;99.80;;;;;;5093771;28;20209;-62
2021/05/20 04:37:02;;;;;;;2.30;1.40;;;13.20;99.50;;;;;;5093700;28;20208;-62
2021/05/20 04:39:29;;;;;;;5.13;3.23;;;13.20;99.50;;;;;;5094060;28;20232;-62
2021/05/20 04:41:55;;;;;;;2.00;1.10;;;13.20;99.50;;;;;;5094142;28;20224;-62
2021/05/20 04:44:22;;;;;;;2.70;0.93;;;13.20;99.50;;;;;;5093851;28;20223;-63
2021/05/20 04:46:48;;;;;;;2.33;1.90;;;13.10;99.50;;;;;;5094084;28;20208;-63
2021/05/20 04:49:14;;;;;;;2.37;1.27;;;13.20;99.50;;;;;;5094005;28;20228;-63
2021/05/20 04:51:42;;;;;;;2.03;1.10;;;13.30;99.60;;;;;;5094065;28;20208;-63
2021/05/20 04:54:08;;;;;;;4.90;2.50;;;13.50;99.40;;;;;;5096335;28;20216;-64
2021/05/20 04:56:34;;;;;;;1.13;0.93;;;13.50;99.40;;;;;;5095229;28;20212;-66
2021/05/20 04:59:01;;;;;;;3.23;1.63;;;13.50;99.30;;;;;;5095945;28;20235;-65
2021/05/20 05:01:28;;;;;;;1.40;1.13;;;13.70;99.20;;;;;;5095461;28;20235;-66
2021/05/20 05:03:56;;;;;;;1.97;1.20;;;13.80;99.20;;;;;;5094155;28;20627;-66
2021/05/20 05:06:22;;;;;;;2.20;0.90;;;13.80;99.20;;;;;;5094995;28;20216;-66
2021/05/20 05:08:48;;;;;;;4.03;1.00;;;13.80;99.20;;;;;;5094141;28;20228;-65
2021/05/20 05:11:15;;;;;;;3.13;1.30;;;13.90;99.10;;;;;;5094172;28;20222;-65
2021/05/20 05:13:41;;;;;;;1.30;0.83;;;14.00;99.00;;;;;;5093603;28;20311;-60
2021/05/20 05:16:07;;;;;;;1.67;1.10;;;14.00;99.00;;;;;;5092528;28;20209;-59
2021/05/20 05:18:34;;;;;;;2.30;1.00;;;14.00;99.10;;;;;;5093544;28;20250;-64
2021/05/20 05:21:02;;;;;;;3.03;0.90;;;14.00;99.10;;;;;;5093261;28;20225;-64
2021/05/20 05:23:29;;;;;;;3.90;1.10;;;14.00;99.20;;;;;;5093812;28;20208;-65
2021/05/20 05:25:55;;;;;;;1.30;1.10;;;14.00;99.30;;;;;;5093625;28;20257;-64
2021/05/20 05:28:21;;;;;;;3.00;1.03;;;14.00;99.30;;;;;;5092632;28;20277;-64
2021/05/20 05:30:47;;;;;;;1.57;0.80;;;14.10;99.20;;;;;;5092828;28;20200;-64
2021/05/20 05:33:14;;;;;;;1.10;0.97;;;14.20;99.00;;;;;;5092631;28;20200;-64
2021/05/20 05:35:41;;;;;;;1.20;0.80;;;14.20;98.80;;;;;;5092684;28;20208;-64
2021/05/20 05:38:08;;;;;;;1.60;1.17;;;14.30;98.70;;;;;;5092685;28;20254;-65
2021/05/20 05:40:34;;;;;;;2.20;1.00;;;14.40;98.70;;;;;;5092748;28;20219;-64
2021/05/20 05:43:00;;;;;;;1.60;0.87;;;14.40;98.70;;;;;;5092515;28;20210;-65
2021/05/20 05:45:26;;;;;;;2.37;1.40;;;14.40;98.70;;;;;;5092175;28;20207;-64
2021/05/20 05:47:53;;;;;;;3.23;1.23;;;14.40;98.50;;;;;;5091838;28;20235;-65
2021/05/20 05:50:19;;;;;;;3.80;1.63;;;14.50;98.40;;;;;;5092334;28;20206;-64
2021/05/20 05:52:46;;;;;;;4.13;1.90;;;14.70;98.40;;;;;;5091880;28;20663;-65
2021/05/20 05:55:12;;;;;;;2.87;1.67;;;14.80;98.40;;;;;;5092054;28;20204;-64
2021/05/20 05:57:38;;;;;;;3.17;1.80;;;15.10;97.90;;;;;;5092020;28;20644;-64
2021/05/20 06:00:07;;;;;;;1.47;1.30;;;15.30;97.50;;;;;;5092252;28;20224;-64
2021/05/20 06:02:34;;;;;;;3.63;2.40;;;15.40;97.30;;;;;;5091901;28;20235;-64
2021/05/20 06:05:02;;;;;;;2.00;1.50;;;15.50;97.30;;;;;;5092202;28;20295;-65
2021/05/20 06:07:28;;;;;;;3.87;1.27;;;15.40;97.00;;;;;;5092176;28;20204;-63
2021/05/20 06:09:55;;;;;;;2.13;1.40;;;15.30;97.00;;;;;;5091577;28;20436;-67
2021/05/20 06:12:21;;;;;;;3.00;1.30;;;15.40;97.30;;;;;;5092088;28;20208;-65
2021/05/20 06:14:47;;;;;;;1.20;1.10;;;15.30;97.30;;;;;;5091810;28;20242;-64
2021/05/20 06:17:14;;;;;;;2.23;1.53;;;15.30;97.30;;;;;;5092228;28;20439;-64
2021/05/20 06:19:40;;;;;;;2.83;1.20;;;15.40;97.10;;;;;;5091758;28;20749;-64
2021/05/20 06:22:06;;;;;;;3.30;1.40;;;15.40;97.10;;;;;;5092260;28;20224;-64
2021/05/20 06:24:32;;;;;;;2.47;1.40;;;15.60;97.00;;;;;;5091610;28;20204;-65
2021/05/20 06:26:59;;;;;;;1.63;1.30;;;15.70;96.70;;;;;;5090774;28;20203;-64
2021/05/20 06:29:26;;;;;;;2.30;1.40;;;15.90;96.70;;;;;;5091607;28;20581;-64
2021/05/20 06:31:52;;;;;;;1.83;1.50;;;16.00;96.20;;;;;;5091940;28;20207;-64
2021/05/20 06:34:18;;;;;;;2.03;1.33;;;16.20;95.90;;;;;;5091544;28;20694;-64
2021/05/20 06:36:45;;;;;;;3.53;1.20;;;16.50;95.60;;;;;;5091841;28;20208;-64
2021/05/20 06:39:11;;;;;;;2.17;1.20;;;17.00;94.80;;;;;;5091365;28;20651;-65
2021/05/20 06:41:38;;;;;;;2.73;0.83;;;17.80;93.90;;;;;;5091535;28;20672;-65
2021/05/20 06:44:06;;;;;;;2.17;1.10;;;19.40;91.40;;;;;;5091636;28;20204;-65
2021/05/20 06:46:34;;;;;;;2.40;1.07;;;20.00;89.40;;;;;;5092127;28;20201;-64
2021/05/20 06:49:00;;;;;;;3.00;1.10;;;20.10;87.20;;;;;;5091549;28;20303;-64
2021/05/20 06:51:26;;;;;;;2.00;1.13;;;20.20;86.20;;;;;;5091605;28;20196;-64
2021/05/20 06:53:52;;;;;;;1.25;0.80;;;20.60;86.10;;;;;;5091311;28;20204;-65
2021/05/20 06:56:21;;;;;;;1.77;1.02;;;21.90;81.80;;;;;;5091394;28;20222;-65
2021/05/20 07:01:32;;;;;;;1.13;0.90;;;25.60;69.10;;;;;;5091393;28;20266;-65
2021/05/20 07:03:58;;;;;;;1.80;1.05;;;26.60;62.50;;;;;;5090893;28;20208;-64
2021/05/20 07:06:25;;;;;;;3.22;1.00;;;26.30;61.60;;;;;;5091317;28;20217;-60
2021/05/20 07:08:51;;;;;;;1.70;1.60;;;25.50;61.90;;;;;;5091341;28;20650;-60
2021/05/20 07:11:17;;;;;;;1.38;0.70;;;24.90;63.80;;;;;;5091293;28;20204;-60
2021/05/20 07:13:44;;;;;;;2.10;1.20;;;24.60;65.10;;;;;;5091240;28;20219;-59
2021/05/20 07:16:10;;;;;;;1.52;0.93;;;23.90;66.10;;;;;;5091736;28;20215;-60
2021/05/20 07:18:37;;;;;;;1.88;0.80;;;23.10;67.80;;;;;;5091106;28;20231;-60
2021/05/20 07:21:04;;;;;;;1.08;0.85;;;22.20;69.40;;;;;;5091027;28;20227;-60
2021/05/20 07:23:30;;;;;;;1.90;1.38;;;21.30;72.00;;;;;;5090870;28;20209;-60
2021/05/20 07:25:56;;;;;;;1.80;0.95;;;20.60;74.00;;;;;;5091289;28;20242;-60
2021/05/20 07:28:23;;;;;;;1.05;0.90;;;20.10;75.40;;;;;;5091137;28;20441;-59
2021/05/20 07:30:49;;;;;;;2.17;0.90;;;19.80;76.80;;;;;;5091411;28;20211;-60
2021/05/20 07:33:15;;;;;;;4.63;1.10;;;19.40;78.40;;;;;;5091266;28;20254;-59
2021/05/20 07:35:42;;;;;;;2.55;1.00;;;19.20;80.10;;;;;;5090928;28;20200;-59
2021/05/20 07:38:09;;;;;;;1.10;1.00;;;19.00;81.10;;;;;;5092146;28;20723;-59
2021/05/20 07:40:35;;;;;;;1.05;1.00;;;18.70;82.50;;;;;;5095097;28;20212;-59
2021/05/20 07:43:01;;;;;;;2.35;1.00;;;18.70;83.30;;;;;;5094738;28;20608;-59
2021/05/20 07:45:27;;;;;;;1.25;1.10;;;18.70;83.30;;;;;;5094706;28;20212;-59
2021/05/20 07:47:54;;;;;;;0.90;0.70;;;18.90;83.10;;;;;;5094779;28;20235;-60
2021/05/20 07:50:20;;;;;;;1.35;0.90;;;19.20;82.40;;;;;;5095243;28;20211;-60
2021/05/20 07:52:48;;;;;;;2.58;1.10;;;19.50;81.90;;;;;;5094567;28;20200;-59
2021/05/20 07:55:15;;;;;;;3.33;1.10;;;19.80;79.50;;;;;;5094502;28;20200;-59
2021/05/20 07:57:41;;;;;;;2.25;1.10;;;20.10;77.80;;;;;;5094399;28;20234;-60
2021/05/20 08:00:10;;;;;;;2.38;1.20;;;20.40;77.70;;;;;;5094417;28;20230;-60
2021/05/20 08:02:43;;;;;;;1.38;1.10;;;20.60;77.90;;;;;;5094138;28;20232;-59
2021/05/20 08:05:13;;;;;;;3.35;1.30;;;20.80;77.20;;;;;;5094428;28;20204;-59
2021/05/20 08:07:48;;;;;;;2.08;1.33;;;20.70;77.20;;;;;;5094080;28;20219;-60
2021/05/20 08:10:39;;;;;;;2.28;1.40;;;21.20;75.40;;;;;;5094241;28;20208;-59
2021/05/20 08:13:05;;;;;;;2.22;1.30;;;21.60;75.00;;;;;;5094172;28;20205;-59
2021/05/20 08:15:32;;;;;;;2.00;1.27;;;22.10;73.00;;;;;;5093981;28;20204;-59
2021/05/20 08:17:58;;;;;;;1.67;1.23;;;22.60;70.90;;;;;;5093693;28;20228;-59
2021/05/20 08:20:24;;;;;;;1.92;1.15;;;22.70;69.60;;;;;;5094211;28;20215;-59
2021/05/20 08:22:51;;;;;;;0.95;0.80;;;22.60;69.60;;;;;;5094093;28;20228;-59
2021/05/20 08:25:18;;;;;;;3.95;1.20;;;22.60;69.10;;;;;;5083178;28;20434;-60
2021/05/20 08:27:44;;;;;;;0.98;0.80;;;22.40;69.40;;;;;;5073610;28;20247;-62
2021/05/20 08:30:12;;;;;;;3.92;0.90;;;22.60;69.20;;;;;;5073428;28;20205;-60
2021/05/20 08:32:38;;;;;;;0.77;0.77;;;22.80;69.00;;;;;;5073758;28;20223;-60
2021/05/20 08:35:05;;;;;;;1.10;1.00;;;22.90;67.40;;;;;;5073062;28;20205;-61
2021/05/20 08:37:31;;;;;;;2.67;0.90;;;23.00;67.60;;;;;;5073330;28;20207;-60
2021/05/20 08:39:57;;;;;;;4.40;1.27;;;23.00;67.70;;;;;;5073230;28;20205;-61
2021/05/20 08:42:24;;;;;;;3.22;1.30;;;23.00;67.00;;;;;;5073189;28;20410;-61
2021/05/20 08:44:51;;;;;;;2.08;1.30;;;22.50;68.80;;;;;;5073076;28;20673;-60
2021/05/20 08:47:18;;;;;;;1.88;0.70;;;22.30;69.70;;;;;;5073246;28;20209;-60
2021/05/20 08:49:47;;;;;;;1.00;0.75;;;22.20;69.40;;;;;;5071605;28;20652;-61
2021/05/20 08:52:13;;;;;;;2.58;1.00;;;22.00;68.90;;;;;;5073005;28;20669;-61
2021/05/20 08:54:40;;;;;;;1.50;1.00;;;21.80;69.50;;;;;;5072910;28;20586;-60
2021/05/20 08:57:07;;;;;;;3.85;0.95;;;21.70;69.60;;;;;;5072854;28;20281;-60
2021/05/20 08:59:34;;;;;;;2.80;1.15;;;21.90;69.00;;;;;;5082094;28;20232;-57
2021/05/20 09:02:00;;;;;;;1.38;0.93;;;22.00;68.80;;;;;;5093257;28;20281;-57
2021/05/20 09:04:27;;;;;;;1.33;0.98;;;21.90;68.60;;;;;;5093198;28;20590;-56
2021/05/20 09:06:55;;;;;;;1.38;0.80;;;21.80;69.10;;;;;;5093254;28;20310;-56
2021/05/20 09:09:24;;;;;;;1.17;0.93;;;21.40;70.80;;;;;;5093125;28;20232;-57
2021/05/20 09:11:51;;;;;;;1.05;0.98;;;20.90;71.70;;;;;;5093238;28;20200;-57
2021/05/20 09:14:32;;;;;;;1.13;0.93;;;20.40;73.70;;;;;;5092767;28;20235;-56
2021/05/20 09:17:10;;;;;;;1.88;1.20;;;20.00;75.20;;;;;;5093136;28;20215;-56
2021/05/20 09:19:36;;;;;;;3.50;1.20;;;20.00;74.50;;;;;;5092959;28;20224;-57
2021/05/20 09:22:04;;;;;;;0.95;0.60;;;20.10;73.10;;;;;;5092577;28;20768;-57
2021/05/20 09:24:44;;;;;;;0.88;0.80;;;20.30;71.40;;;;;;5092660;28;20204;-57
2021/05/20 09:27:23;;;;;;;4.93;1.00;;;20.70;71.10;;;;;;5092886;28;20212;-57
2021/05/20 09:30:28;;;;;;;1.33;0.93;;;21.20;70.00;;;;;;5092571;28;20690;-57
2021/05/20 09:32:57;;;;;;;1.17;0.88;;;21.60;68.80;;;;;;5077086;28;20207;-57
2021/05/20 09:35:26;;;;;;;2.90;1.63;;;22.10;67.60;;;;;;5092864;28;20212;-57
2021/05/20 09:37:56;;;;;;;3.25;0.90;;;22.40;66.90;;;;;;5092849;28;20293;-58
2021/05/20 09:40:25;;;;;;;1.27;0.50;;;22.60;66.80;;;;;;5093735;28;20204;-63
2021/05/20 09:42:52;;;;;;;1.33;0.73;;;22.60;65.00;;;;;;5092589;28;20313;-57
2021/05/20 09:45:21;;;;;;;1.35;0.90;;;22.60;65.10;;;;;;5092565;28;20204;-58
2021/05/20 09:47:48;;;;;;;2.50;1.27;;;22.40;66.00;;;;;;5092300;28;20598;-57
2021/05/20 09:50:18;;;;;;;1.00;0.80;;;22.30;66.90;;;;;;5092746;28;20206;-60
2021/05/20 09:52:44;;;;;;;1.67;0.73;;;22.30;65.90;;;;;;5092518;28;20199;-57
2021/05/20 09:55:24;;;;;;;1.73;1.05;;;22.00;67.30;;;;;;5092130;28;20263;-58
2021/05/20 09:57:52;;;;;;;1.38;0.90;;;21.50;68.10;;;;;;5091858;28;20582;-58
2021/05/20 10:00:21;;;;;;;1.25;0.95;;;21.30;69.20;;;;;;5092161;28;20207;-57
2021/05/20 10:02:58;;;;;;;2.33;1.52;;;21.30;70.70;;;;;;5091977;28;20224;-57
2021/05/20 10:05:27;;;;;;;1.05;0.95;;;21.00;69.90;;;;;;5092083;28;20199;-57
2021/05/20 10:07:55;;;;;;;4.93;3.33;;;20.50;71.60;;;;;;5092284;28;20743;-58
2021/05/20 10:10:22;;;;;;;1.92;1.33;;;20.00;72.90;;;;;;5091942;28;20208;-58
2021/05/20 10:12:48;;;;;;;3.55;3.08;;;19.90;74.40;;;;;;5092121;28;20200;-58
2021/05/20 10:15:17;;;;;;;2.78;1.20;;;19.90;74.20;;;;;;5092087;28;20583;-58
2021/05/20 10:17:44;;;;;;;3.63;0.90;;;19.80;73.40;;;;;;5092031;28;20224;-58
2021/05/20 10:20:13;;;;;;;2.05;1.33;;;19.80;73.20;;;;;;5092386;28;20562;-58
2021/05/20 10:22:40;;;;;;;1.20;0.73;;;19.90;73.70;;;;;;5091983;28;20230;-58
2021/05/20 10:25:07;;;;;;;1.50;0.98;;;20.00;71.30;;;;;;5091972;28;20204;-58
2021/05/20 10:27:36;;;;;;;2.40;2.00;;;20.30;71.70;;;;;;5091652;28;20220;-57
2021/05/20 10:30:04;;;;;;;1.77;0.63;;;20.60;70.00;;;;;;5091701;28;20200;-57
2021/05/20 10:32:31;;;;;;;1.65;0.90;;;20.70;70.10;;;;;;5091626;28;20200;-58
2021/05/20 10:35:03;;;;;;;2.95;1.63;;;20.80;69.30;;;;;;5091628;28;20208;-58
2021/05/20 10:37:37;;;;;;;1.77;1.25;;;20.80;67.60;;;;;;5091391;28;20260;-57
2021/05/20 10:40:07;;;;;;;6.65;1.08;;;20.80;67.50;;;;;;5091727;28;20204;-61
2021/05/20 10:42:42;;;;;;;1.38;0.80;;;20.80;68.40;;;;;;5091333;28;20593;-56
2021/05/20 10:45:19;;;;;;;1.33;0.73;;;21.00;67.50;;;;;;5091757;28;20682;-56
2021/05/20 10:48:17;;;;;;;1.70;1.60;;;21.20;65.50;;;;;;5091120;28;20242;-56
2021/05/20 10:51:08;;;;;;;3.72;1.55;;;21.30;65.80;;;;;;5091195;28;20212;-56
2021/05/20 10:53:41;;;;;;;3.80;0.90;;;21.40;66.30;;;;;;5091432;28;20212;-60
2021/05/20 10:56:10;;;;;;;1.10;0.80;;;21.40;65.40;;;;;;5091330;28;20208;-56
2021/05/20 10:58:37;;;;;;;3.60;1.17;;;21.30;65.90;;;;;;5091382;28;20228;-56
2021/05/20 11:01:04;;;;;;;1.48;1.20;;;21.10;65.90;;;;;;5091390;28;20689;-56
2021/05/20 11:03:49;;;;;;;4.78;3.40;;;20.90;66.90;;;;;;5091063;28;20204;-56
2021/05/20 11:06:17;;;;;;;2.67;0.75;;;20.70;67.40;;;;;;5091325;28;20205;-55
2021/05/20 11:08:53;;;;;;;4.82;3.28;;;20.70;67.20;;;;;;5090876;28;20228;-57
2021/05/20 11:11:45;;;;;;;0.68;0.60;;;20.60;66.90;;;;;;5091245;28;20215;-56
2021/05/20 11:14:37;;;;;;;3.20;1.00;;;20.70;67.20;;;;;;5094627;28;20254;-56
2021/05/20 11:17:38;;;;;;;5.07;0.75;;;20.80;67.00;;;;;;5095171;28;20596;-57
2021/05/20 11:20:42;;;;;;;1.50;1.15;;;20.90;67.10;;;;;;5095203;28;20852;-56
2021/05/20 11:23:29;;;;;;;0.88;0.70;;;21.20;65.90;;;;;;5094962;28;20220;-56
2021/05/20 11:26:16;;;;;;;1.42;0.60;;;21.20;63.30;;;;;;5095083;28;20585;-56
2021/05/20 11:29:05;;;;;;;1.73;1.00;;;21.40;63.70;;;;;;5095075;28;20799;-56
2021/05/20 11:31:31;;;;;;;2.15;0.63;;;21.70;61.80;;;;;;5094980;28;20261;-56
2021/05/20 11:34:21;;;;;;;2.25;0.70;;;21.80;61.40;;;;;;5095333;28;20207;-57
2021/05/20 11:36:49;;;;;;;1.08;0.80;;;21.90;61.30;;;;;;5095181;28;20212;-57
2021/05/20 11:39:17;;;;;;;1.02;0.50;;;22.10;59.80;;;;;;5094805;28;20260;-57
2021/05/20 11:41:44;;;;;;;2.63;0.90;;;22.00;60.50;;;;;;5095087;28;20236;-57
2021/05/20 11:44:15;;;;;;;1.50;0.63;;;21.80;60.40;;;;;;5094567;28;20207;-57
2021/05/20 11:46:43;;;;;;;2.03;1.00;;;21.40;59.70;;;;;;5094886;28;20204;-57
2021/05/20 11:49:21;;;;;;;1.48;0.55;;;21.20;60.80;;;;;;5094529;28;20228;-57
2021/05/20 11:51:50;;;;;;;0.65;0.50;;;21.40;60.70;;;;;;5094735;28;20207;-57
2021/05/20 11:54:18;;;;;;;1.60;0.60;;;21.70;60.60;;;;;;5094461;28;20208;-57
2021/05/20 11:56:48;;;;;;;1.27;0.80;;;22.20;59.80;;;;;;5094466;28;20208;-57
2021/05/20 11:59:16;;;;;;;4.38;3.42;;;22.30;58.40;;;;;;5094365;28;20704;-57
2021/05/20 12:01:44;;;;;;;5.05;1.20;;;22.20;58.60;;;;;;5094397;28;20237;-57
2021/05/20 12:04:11;;;;;;;1.38;0.63;;;22.20;58.70;;;;;;5094542;28;20204;-58
2021/05/20 12:06:37;;;;;;;2.80;1.63;;;22.30;57.40;;;;;;5094334;28;20220;-58
2021/05/20 12:09:09;;;;;;;1.13;0.57;;;22.30;57.30;;;;;;5093937;28;20232;-57
2021/05/20 12:11:35;;;;;;;1.23;0.65;;;22.20;57.30;;;;;;5094623;28;20253;-58
2021/05/20 12:14:01;;;;;;;0.98;0.70;;;22.10;57.70;;;;;;5094244;28;20201;-57
2021/05/20 12:16:31;;;;;;;1.27;0.70;;;22.10;57.60;;;;;;5094454;28;20458;-58
2021/05/20 12:18:58;;;;;;;1.25;0.60;;;22.00;57.00;;;;;;5094329;28;20224;-59
2021/05/20 12:21:24;;;;;;;0.98;0.63;;;21.90;56.80;;;;;;5094149;28;20212;-57
2021/05/20 12:23:54;;;;;;;0.85;0.60;;;21.80;56.70;;;;;;5093960;28;20253;-58
2021/05/20 12:26:25;;;;;;;1.55;1.02;;;21.90;57.60;;;;;;5094249;28;20204;-58
2021/05/20 12:28:52;;;;;;;1.85;0.80;;;22.00;56.80;;;;;;5094300;28;20231;-58
2021/05/20 12:31:19;;;;;;;1.58;1.15;;;22.10;56.80;;;;;;5094603;28;20208;-58
2021/05/20 12:33:47;;;;;;;1.58;0.70;;;22.10;57.40;;;;;;5094497;28;20211;-58
2021/05/20 12:36:30;;;;;;;1.63;0.80;;;22.20;56.30;;;;;;5093951;28;20211;-58
2021/05/20 12:38:57;;;;;;;2.28;0.40;;;22.20;56.10;;;;;;5093426;28;20584;-58
2021/05/20 12:41:34;;;;;;;1.33;0.65;;;22.20;56.10;;;;;;5093653;28;20204;-58
2021/05/20 12:44:13;;;;;;;2.97;0.95;;;22.10;56.70;;;;;;5093545;28;20253;-58
2021/05/20 12:46:39;;;;;;;0.73;0.40;;;22.10;57.60;;;;;;5093636;28;20212;-60
2021/05/20 12:49:07;;;;;;;0.95;0.60;;;22.10;57.40;;;;;;5093673;28;20228;-58
2021/05/20 12:51:33;;;;;;;0.30;0.30;;;22.20;56.90;;;;;;5093733;28;20265;-58
2021/05/20 12:54:02;;;;;;;2.53;0.93;;;22.30;56.80;;;;;;5093523;28;20211;-58
2021/05/20 12:56:30;;;;;;;1.00;0.55;;;22.20;56.30;;;;;;5093862;28;20212;-59